createdAt,value
2022-08-20T00:02:14.767Z,99561.59
2022-08-20T00:04:42.232Z,99567.78
2022-08-20T00:07:09.509Z,99567.81
2022-08-20T00:09:37.096Z,99560.72
2022-08-20T00:12:06.765Z,99549.19
2022-08-20T00:14:35.179Z,99549.19
2022-08-20T00:17:05.794Z,99547.44
2022-08-20T00:19:33.680Z,99563.34
2022-08-20T00:22:01.053Z,99555.41
2022-08-20T00:24:28.348Z,99556.28
2022-08-20T00:26:55.669Z,99556.28
2022-08-20T00:29:23.055Z,99550.97
2022-08-20T00:31:51.104Z,99554.53
2022-08-20T00:34:19.308Z,99551.88
2022-08-20T00:36:46.994Z,99557.16
2022-08-20T00:39:14.307Z,99559.84
2022-08-20T00:41:41.596Z,99555.41
2022-08-20T00:44:21.885Z,99554.50
2022-08-20T00:46:51.285Z,99553.59
2022-08-20T00:49:32.007Z,99550.94
2022-08-20T00:52:12.904Z,99551.75
2022-08-20T00:55:00.782Z,99556.16
2022-08-20T00:57:43.515Z,99565.00
2022-08-20T01:00:39.264Z,99565.91
2022-08-20T01:03:10.404Z,99552.59
2022-08-20T01:05:42.158Z,99562.31
2022-08-20T01:08:09.432Z,99564.97
2022-08-20T01:10:42.317Z,99569.38
2022-08-20T01:13:15.639Z,99579.09
2022-08-20T01:15:47.574Z,99571.09
2022-08-20T01:18:27.858Z,99575.47
2022-08-20T01:21:03.319Z,99578.97
2022-08-20T01:24:02.028Z,99575.44
2022-08-20T01:26:40.884Z,99578.94
2022-08-20T01:29:19.773Z,99575.34
2022-08-20T01:31:47.141Z,99577.13
2022-08-20T01:34:20.439Z,99571.78
2022-08-20T01:36:53.031Z,99570.06
2022-08-20T01:39:26.844Z,99570.97
2022-08-20T01:42:30.213Z,99565.63
2022-08-20T01:44:57.562Z,99567.34
2022-08-20T01:47:38.560Z,99574.38
2022-08-20T01:50:24.116Z,99562.88
2022-08-20T01:53:37.833Z,99565.53
2022-08-20T01:56:14.188Z,99563.75
2022-08-20T01:58:56.155Z,99568.13
2022-08-20T02:01:45.821Z,99562.72
2022-08-20T02:04:17.191Z,99571.56
2022-08-20T02:06:56.383Z,99573.31
2022-08-20T02:09:37.777Z,99583.88
2022-08-20T02:12:08.429Z,99564.50
2022-08-20T02:14:51.270Z,99567.28
2022-08-20T02:17:22.897Z,99566.38
2022-08-20T02:20:00.436Z,99563.63
2022-08-20T02:22:50.050Z,99574.13
2022-08-20T02:25:23.063Z,99580.31
2022-08-20T02:27:52.897Z,99577.66
2022-08-20T02:30:34.158Z,99580.31
2022-08-20T02:33:06.156Z,99576.75
2022-08-20T02:35:35.089Z,99584.66
2022-08-20T02:38:03.799Z,99582.00
2022-08-20T02:40:32.384Z,99572.25
2022-08-20T02:43:02.198Z,99579.31
2022-08-20T02:45:37.375Z,99575.78
2022-08-20T02:48:05.574Z,99574.91
2022-08-20T02:50:33.084Z,99568.72
2022-08-20T02:53:00.390Z,99571.31
2022-08-20T02:55:28.486Z,99572.28
2022-08-20T02:57:59.676Z,99570.53
2022-08-20T03:00:38.517Z,99573.19
2022-08-20T03:03:11.629Z,99572.25
2022-08-20T03:05:42.823Z,99573.94
2022-08-20T03:08:13.765Z,99573.00
2022-08-20T03:10:44.772Z,99574.75
2022-08-20T03:13:14.770Z,99583.59
2022-08-20T03:15:51.327Z,99579.09
2022-08-20T03:18:22.745Z,99573.78
2022-08-20T03:20:51.380Z,99576.50
2022-08-20T03:23:21.657Z,99581.72
2022-08-20T03:25:49.624Z,99575.53
2022-08-20T03:28:19.345Z,99575.47
2022-08-20T03:30:47.284Z,99579.91
2022-08-20T03:33:16.149Z,99568.38
2022-08-20T03:35:43.789Z,99575.44
2022-08-20T03:38:14.325Z,99572.75
2022-08-20T03:40:43.485Z,99570.06
2022-08-20T03:43:12.568Z,99567.44
2022-08-20T03:45:43.909Z,99565.69
2022-08-20T03:48:17.797Z,99566.47
2022-08-20T03:50:47.294Z,99554.94
2022-08-20T03:53:15.756Z,99558.53
2022-08-20T03:55:53.957Z,99546.16
2022-08-20T03:58:34.604Z,99545.31
2022-08-20T04:01:06.857Z,99547.03
2022-08-20T04:03:35.222Z,99552.13
2022-08-20T04:06:03.040Z,99549.50
2022-08-20T04:08:31.160Z,99546.00
2022-08-20T04:10:59.976Z,99558.44
2022-08-20T04:13:30.808Z,99567.13
2022-08-20T04:16:01.836Z,99566.22
2022-08-20T04:18:29.798Z,99568.94
2022-08-20T04:20:57.117Z,99568.94
2022-08-20T04:23:24.433Z,99585.91
2022-08-20T04:25:51.722Z,99578.81
2022-08-20T04:28:27.013Z,99571.53
2022-08-20T04:30:59.785Z,99585.59
2022-08-20T04:33:35.392Z,99584.69
2022-08-20T04:36:06.092Z,99592.72
2022-08-20T04:38:47.908Z,99602.50
2022-08-20T04:41:24.022Z,99607.81
2022-08-20T04:43:56.831Z,99601.59
2022-08-20T04:46:28.783Z,99608.72
2022-08-20T04:48:57.759Z,99606.81
2022-08-20T04:51:26.775Z,99603.31
2022-08-20T04:53:57.260Z,99607.81
2022-08-20T04:56:38.837Z,99608.66
2022-08-20T04:59:07.460Z,99608.66
2022-08-20T05:01:35.233Z,99606.88
2022-08-20T05:04:02.705Z,99605.16
2022-08-20T05:06:32.321Z,99602.63
2022-08-20T05:09:01.159Z,99607.91
2022-08-20T05:11:34.652Z,99606.97
2022-08-20T05:14:08.597Z,99614.03
2022-08-20T05:16:41.022Z,99618.47
2022-08-20T05:19:12.991Z,99622.06
2022-08-20T05:21:41.081Z,99623.94
2022-08-20T05:24:10.091Z,99615.16
2022-08-20T05:26:37.556Z,99609.94
2022-08-20T05:29:06.793Z,99617.03
2022-08-20T05:31:35.510Z,99610.94
2022-08-20T05:34:12.699Z,99614.53
2022-08-20T05:36:50.378Z,99619.03
2022-08-20T05:39:23.296Z,99611.13
2022-08-20T05:41:51.315Z,99609.44
2022-08-20T05:44:19.852Z,99615.69
2022-08-20T05:46:48.352Z,99610.47
2022-08-20T05:49:20.922Z,99606.97
2022-08-20T05:51:51.276Z,99615.03
2022-08-20T05:54:18.757Z,99606.22
2022-08-20T05:56:46.219Z,99599.19
2022-08-20T05:59:14.040Z,99599.22
2022-08-20T06:01:42.921Z,99594.84
2022-08-20T06:04:31.975Z,99588.69
2022-08-20T06:07:07.071Z,99594.91
2022-08-20T06:09:36.178Z,99587.88
2022-08-20T06:12:08.354Z,99579.09
2022-08-20T06:14:36.126Z,99584.44
2022-08-20T06:17:17.209Z,99589.75
2022-08-20T06:19:47.280Z,99588.00
2022-08-20T06:22:19.195Z,99594.22
2022-08-20T06:24:52.801Z,99586.25
2022-08-20T06:27:21.713Z,99586.28
2022-08-20T06:29:50.885Z,99585.47
2022-08-20T06:32:31.712Z,99585.50
2022-08-20T06:35:03.777Z,99586.44
2022-08-20T06:37:36.401Z,99583.78
2022-08-20T06:40:11.468Z,99592.66
2022-08-20T06:42:47.419Z,99591.78
2022-08-20T06:45:25.710Z,99591.78
2022-08-20T06:48:01.150Z,99588.22
2022-08-20T06:50:43.128Z,99590.88
2022-08-20T06:53:20.569Z,99591.78
2022-08-20T06:55:55.988Z,99590.03
2022-08-20T06:58:36.834Z,99590.91
2022-08-20T07:01:11.045Z,99590.91
2022-08-20T07:03:55.096Z,99590.03
2022-08-20T07:06:27.328Z,99596.22
2022-08-20T07:08:55.723Z,99589.13
2022-08-20T07:11:27.712Z,99594.47
2022-08-20T07:13:58.331Z,99589.16
2022-08-20T07:16:26.220Z,99591.81
2022-08-20T07:18:53.500Z,99592.69
2022-08-20T07:21:20.962Z,99589.97
2022-08-20T07:23:49.312Z,99592.63
2022-08-20T07:26:17.870Z,99588.16
2022-08-20T07:28:46.040Z,99595.28
2022-08-20T07:31:32.101Z,99589.94
2022-08-20T07:34:03.437Z,99589.88
2022-08-20T07:36:31.311Z,99593.44
2022-08-20T07:38:58.818Z,99593.44
2022-08-20T07:41:26.073Z,99593.41
2022-08-20T07:43:53.409Z,99596.94
2022-08-20T07:46:21.731Z,99589.75
2022-08-20T07:48:51.284Z,99586.28
2022-08-20T07:51:22.168Z,99587.16
2022-08-20T07:53:51.663Z,99589.75
2022-08-20T07:56:24.198Z,99581.69
2022-08-20T07:58:56.701Z,99580.72
2022-08-20T08:01:30.646Z,99580.66
2022-08-20T08:04:00.037Z,99585.94
2022-08-20T08:06:31.276Z,99584.13
2022-08-20T08:09:12.977Z,99578.63
2022-08-20T08:11:50.486Z,99584.78
2022-08-20T08:14:24.770Z,99591.84
2022-08-20T08:16:57.185Z,99582.97
2022-08-20T08:19:28.285Z,99587.34
2022-08-20T08:21:57.459Z,99594.34
2022-08-20T08:24:28.499Z,99586.13
2022-08-20T08:26:56.119Z,99584.38
2022-08-20T08:29:23.453Z,99579.94
2022-08-20T08:31:50.733Z,99579.00
2022-08-20T08:34:18.008Z,99580.69
2022-08-20T08:36:45.460Z,99585.03
2022-08-20T08:39:12.745Z,99578.63
2022-08-20T08:41:50.230Z,99586.59
2022-08-20T08:44:27.179Z,99584.72
2022-08-20T08:47:13.734Z,99583.69
2022-08-20T08:49:41.044Z,99581.75
2022-08-20T08:52:33.470Z,99583.50
2022-08-20T08:55:08.054Z,99585.13
2022-08-20T08:57:35.458Z,99592.16
2022-08-20T09:00:15.250Z,99580.50
2022-08-20T09:03:04.510Z,99588.50
2022-08-20T09:05:46.022Z,99589.94
2022-08-20T09:08:20.084Z,99596.91
2022-08-20T09:10:47.384Z,99584.31
2022-08-20T09:13:14.669Z,99593.38
2022-08-20T09:15:42.861Z,99584.38
2022-08-20T09:18:10.182Z,99577.81
2022-08-20T09:20:37.416Z,99572.41
2022-08-20T09:23:07.605Z,99577.69
2022-08-20T09:25:34.961Z,99580.03
2022-08-20T09:28:02.642Z,99574.00
2022-08-20T09:30:31.105Z,99578.34
2022-08-20T09:33:00.862Z,99583.47
2022-08-20T09:35:29.816Z,99575.09
2022-08-20T09:37:57.211Z,99578.63
2022-08-20T09:40:24.739Z,99578.63
2022-08-20T09:42:52.191Z,99574.31
2022-08-20T09:45:20.377Z,99573.25
2022-08-20T09:47:54.702Z,99572.94
2022-08-20T09:50:30.808Z,99570.69
2022-08-20T09:53:02.517Z,99567.91
2022-08-20T09:55:53.100Z,99567.03
2022-08-20T09:58:51.157Z,99565.91
2022-08-20T10:01:21.755Z,99562.63
2022-08-20T10:03:51.001Z,99565.09
2022-08-20T10:06:20.422Z,99567.84
2022-08-20T10:08:49.832Z,99564.03
2022-08-20T10:11:18.539Z,99563.66
2022-08-20T10:13:46.153Z,99561.75
2022-08-20T10:16:13.937Z,99561.63
2022-08-20T10:18:41.363Z,99563.13
2022-08-20T10:21:12.949Z,99563.03
2022-08-20T10:23:40.493Z,99561.16
2022-08-20T10:26:12.957Z,99561.19
2022-08-20T10:28:40.509Z,99552.78
2022-08-20T10:31:12.985Z,99552.00
2022-08-20T10:33:42.291Z,99548.09
2022-08-20T10:36:15.530Z,99543.56
2022-08-20T10:38:44.262Z,99539.31
2022-08-20T10:41:12.009Z,99547.53
2022-08-20T10:43:39.254Z,99541.22
2022-08-20T10:46:06.952Z,99542.94
2022-08-20T10:48:34.617Z,99552.00
2022-08-20T10:51:01.932Z,99543.84
2022-08-20T10:53:29.401Z,99548.78
2022-08-20T10:55:57.864Z,99544.75
2022-08-20T10:58:27.207Z,99537.97
2022-08-20T11:01:05.468Z,99541.59
2022-08-20T11:03:32.968Z,99541.50
2022-08-20T11:06:00.473Z,99541.31
2022-08-20T11:08:34.725Z,99537.53
2022-08-20T11:11:05.797Z,99536.03
2022-08-20T11:13:35.464Z,99526.09
2022-08-20T11:16:04.583Z,99529.28
2022-08-20T11:18:33.021Z,99539.47
2022-08-20T11:21:01.362Z,99525.78
2022-08-20T11:23:28.777Z,99521.19
2022-08-20T11:25:58.591Z,99521.47
2022-08-20T11:28:31.413Z,99512.53
2022-08-20T11:31:01.516Z,99513.09
2022-08-20T11:33:29.233Z,99515.59
2022-08-20T11:35:57.032Z,99511.78
2022-08-20T11:38:24.881Z,99515.16
2022-08-20T11:40:52.205Z,99515.38
2022-08-20T11:43:19.457Z,99512.56
2022-08-20T11:45:54.612Z,99509.59
2022-08-20T11:48:23.202Z,99518.75
2022-08-20T11:50:50.792Z,99504.59
2022-08-20T11:53:18.192Z,99509.75
2022-08-20T11:55:47.308Z,99500.50
2022-08-20T11:58:15.361Z,99506.53
2022-08-20T12:00:42.921Z,99506.56
2022-08-20T12:03:11.759Z,99503.59
2022-08-20T12:05:44.836Z,99508.56
2022-08-20T12:08:25.281Z,99504.38
2022-08-20T12:11:02.469Z,99508.31
2022-08-20T12:13:48.313Z,99499.19
2022-08-20T12:16:19.222Z,99507.78
2022-08-20T12:18:48.150Z,99502.50
2022-08-20T12:21:16.406Z,99502.00
2022-08-20T12:23:44.258Z,99498.19
2022-08-20T12:26:11.971Z,99495.06
2022-08-20T12:28:39.461Z,99497.41
2022-08-20T12:31:06.793Z,99487.81
2022-08-20T12:33:34.152Z,99484.06
2022-08-20T12:36:01.643Z,99479.78
2022-08-20T12:38:28.887Z,99476.09
2022-08-20T12:40:56.235Z,99478.16
2022-08-20T12:43:25.257Z,99469.19
2022-08-20T12:45:52.924Z,99471.75
2022-08-20T12:48:21.020Z,99470.00
2022-08-20T12:50:49.960Z,99463.50
2022-08-20T12:53:17.565Z,99466.75
2022-08-20T12:55:46.324Z,99467.22
2022-08-20T12:58:13.564Z,99464.88
2022-08-20T13:00:47.463Z,99463.81
2022-08-20T13:03:20.246Z,99462.44
2022-08-20T13:05:48.929Z,99460.09
2022-08-20T13:08:17.883Z,99460.56
2022-08-20T13:10:46.260Z,99463.00
2022-08-20T13:13:17.505Z,99460.63
2022-08-20T13:15:48.829Z,99456.91
2022-08-20T13:18:16.327Z,99459.56
2022-08-20T13:20:43.786Z,99455.25
2022-08-20T13:23:11.071Z,99456.50
2022-08-20T13:25:38.521Z,99456.56
2022-08-20T13:28:06.357Z,99450.63
2022-08-20T13:30:38.338Z,99445.38
2022-08-20T13:33:05.703Z,99445.41
2022-08-20T13:35:33.126Z,99440.97
2022-08-20T13:38:00.591Z,99435.34
2022-08-20T13:40:28.208Z,99433.09
2022-08-20T13:42:55.646Z,99434.44
2022-08-20T13:45:22.931Z,99424.97
2022-08-20T13:47:55.146Z,99428.91
2022-08-20T13:50:25.940Z,99431.16
2022-08-20T13:52:53.877Z,99427.97
2022-08-20T13:55:25.937Z,99432.72
2022-08-20T13:57:55.314Z,99422.16
2022-08-20T14:00:32.655Z,99411.09
2022-08-20T14:03:03.932Z,99418.53
2022-08-20T14:05:32.624Z,99417.34
2022-08-20T14:08:21.676Z,99409.72
2022-08-20T14:10:51.336Z,99411.19
2022-08-20T14:13:23.845Z,99396.00
2022-08-20T14:15:51.953Z,99400.53
2022-08-20T14:18:19.946Z,99398.22
2022-08-20T14:20:47.424Z,99389.34
2022-08-20T14:23:15.953Z,99394.78
2022-08-20T14:25:47.926Z,99385.38
2022-08-20T14:28:23.956Z,99385.28
2022-08-20T14:30:53.129Z,99379.69
2022-08-20T14:33:24.441Z,99364.63
2022-08-20T14:35:52.814Z,99370.38
2022-08-20T14:38:20.064Z,99368.53
2022-08-20T14:40:47.460Z,99370.50
2022-08-20T14:43:14.898Z,99363.63
2022-08-20T14:45:42.133Z,99361.34
2022-08-20T14:48:09.408Z,99363.03
2022-08-20T14:50:38.021Z,99362.75
2022-08-20T14:53:06.523Z,99356.69
2022-08-20T14:55:37.715Z,99358.50
2022-08-20T14:58:11.506Z,99342.22
2022-08-20T15:00:39.831Z,99352.88
2022-08-20T15:03:07.526Z,99341.63
2022-08-20T15:05:39.523Z,99341.63
2022-08-20T15:08:08.668Z,99344.16
2022-08-20T15:10:39.358Z,99341.13
2022-08-20T15:13:07.221Z,99346.50
2022-08-20T15:15:35.327Z,99338.97
2022-08-20T15:18:03.422Z,99349.72
2022-08-20T15:20:35.025Z,99338.94
2022-08-20T15:23:03.844Z,99344.91
2022-08-20T15:25:37.071Z,99340.56
2022-08-20T15:28:09.003Z,99329.31
2022-08-20T15:30:40.189Z,99329.72
2022-08-20T15:33:09.197Z,99330.41
2022-08-20T15:35:37.116Z,99332.28
2022-08-20T15:38:04.368Z,99325.53
2022-08-20T15:40:33.547Z,99327.56
2022-08-20T15:43:04.300Z,99328.72
2022-08-20T15:45:33.425Z,99325.59
2022-08-20T15:48:13.360Z,99321.81
2022-08-20T15:51:19.535Z,99326.31
2022-08-20T15:54:06.758Z,99332.44
2022-08-20T15:57:38.890Z,99329.56
2022-08-20T16:00:21.271Z,99321.19
2022-08-20T16:03:37.616Z,99318.78
2022-08-20T16:06:25.674Z,99320.84
2022-08-20T16:09:14.586Z,99320.56
2022-08-20T16:12:12.350Z,99318.97
2022-08-20T16:14:47.857Z,99327.00
2022-08-20T16:17:37.240Z,99321.97
2022-08-20T16:20:35.863Z,99332.06
2022-08-20T16:23:04.256Z,99327.09
2022-08-20T16:26:05.408Z,99331.72
2022-08-20T16:29:41.040Z,99342.22
2022-08-20T16:32:33.508Z,99340.25
2022-08-20T16:35:33.202Z,99337.41
2022-08-20T16:38:38.225Z,99336.38
2022-08-20T16:41:34.981Z,99346.84
2022-08-20T16:44:30.694Z,99341.34
2022-08-20T16:47:20.902Z,99333.97
2022-08-20T16:50:11.319Z,99331.03
2022-08-20T16:52:45.384Z,99332.81
2022-08-20T16:55:14.848Z,99339.88
2022-08-20T16:57:42.845Z,99334.34
2022-08-20T17:00:39.013Z,99339.50
2022-08-20T17:03:31.640Z,99334.97
2022-08-20T17:06:36.989Z,99333.75
2022-08-20T17:09:13.015Z,99333.34
2022-08-20T17:11:41.505Z,99334.38
2022-08-20T17:14:18.772Z,99328.63
2022-08-20T17:16:53.053Z,99339.59
2022-08-20T17:19:29.685Z,99338.03
2022-08-20T17:22:11.530Z,99341.81
2022-08-20T17:24:40.139Z,99343.22
2022-08-20T17:27:28.026Z,99335.19
2022-08-20T17:30:20.082Z,99345.91
2022-08-20T17:33:01.109Z,99343.69
2022-08-20T17:36:02.492Z,99355.50
2022-08-20T17:38:56.278Z,99354.09
2022-08-20T17:41:35.915Z,99356.63
2022-08-20T17:44:09.172Z,99360.19
2022-08-20T17:46:45.699Z,99359.75
2022-08-20T17:49:21.465Z,99366.47
2022-08-20T17:51:54.410Z,99370.75
2022-08-20T17:54:32.787Z,99370.31
2022-08-20T17:57:11.373Z,99367.78
2022-08-20T18:00:02.337Z,99376.41
2022-08-20T18:02:34.786Z,99382.88
2022-08-20T18:05:06.810Z,99386.63
2022-08-20T18:08:16.707Z,99378.84
2022-08-20T18:11:56.303Z,99387.09
2022-08-20T18:15:09.274Z,99390.72
2022-08-20T18:18:07.145Z,99395.09
2022-08-20T18:21:20.430Z,99397.88
2022-08-20T18:24:30.241Z,99392.44
2022-08-20T18:27:08.772Z,99395.72
2022-08-20T18:29:42.545Z,99395.59
2022-08-20T18:32:34.085Z,99399.19
2022-08-20T18:35:45.744Z,99403.88
2022-08-20T18:38:22.842Z,99400.19
2022-08-20T18:40:55.109Z,99405.44
2022-08-20T18:43:31.351Z,99409.72
2022-08-20T18:46:35.180Z,99410.50
2022-08-20T18:49:07.648Z,99406.72
2022-08-20T18:51:49.606Z,99408.94
2022-08-20T18:54:32.349Z,99405.38
2022-08-20T18:57:21.989Z,99405.72
2022-08-20T19:00:14.653Z,99409.47
2022-08-20T19:03:20.715Z,99406.44
2022-08-20T19:06:20.653Z,99409.97
2022-08-20T19:09:43.288Z,99418.63
2022-08-20T19:13:16.900Z,99418.75
2022-08-20T19:15:54.146Z,99420.81
2022-08-20T19:18:40.781Z,99417.47
2022-08-20T19:21:15.911Z,99430.53
2022-08-20T19:23:53.399Z,99439.06
2022-08-20T19:26:25.158Z,99437.75
2022-08-20T19:29:09.275Z,99439.16
2022-08-20T19:31:36.964Z,99435.75
2022-08-20T19:34:22.339Z,99454.09
2022-08-20T19:37:32.778Z,99461.03
2022-08-20T19:40:08.496Z,99466.59
2022-08-20T19:42:43.113Z,99454.28
2022-08-20T19:45:46.600Z,99458.00
2022-08-20T19:49:10.091Z,99458.88
2022-08-20T19:51:58.393Z,99460.59
2022-08-20T19:54:29.437Z,99455.25
2022-08-20T19:57:06.897Z,99455.44
2022-08-20T19:59:34.737Z,99449.28
2022-08-20T20:02:20.588Z,99453.00
2022-08-20T20:04:54.972Z,99456.75
2022-08-20T20:07:45.316Z,99463.13
2022-08-20T20:10:32.743Z,99467.69
2022-08-20T20:13:19.881Z,99474.19
2022-08-20T20:15:50.535Z,99470.91
2022-08-20T20:18:17.839Z,99473.69
2022-08-20T20:20:58.136Z,99466.56
2022-08-20T20:23:41.691Z,99471.78
2022-08-20T20:26:20.208Z,99462.81
2022-08-20T20:29:01.927Z,99462.81
2022-08-20T20:31:38.409Z,99466.53
2022-08-20T20:34:13.861Z,99465.72
2022-08-20T20:36:46.894Z,99463.13
2022-08-20T20:39:33.608Z,99466.69
2022-08-20T20:42:12.760Z,99466.91
2022-08-20T20:44:44.693Z,99473.31
2022-08-20T20:47:32.010Z,99472.50
2022-08-20T20:50:08.105Z,99476.97
2022-08-20T20:52:51.627Z,99483.31
2022-08-20T20:55:37.678Z,99491.31
2022-08-20T20:58:05.489Z,99495.03
2022-08-20T21:00:35.117Z,99497.91
2022-08-20T21:03:02.843Z,99509.50
2022-08-20T21:05:32.911Z,99506.97
2022-08-20T21:08:04.596Z,99508.03
2022-08-20T21:10:37.034Z,99511.56
2022-08-20T21:13:08.121Z,99509.09
2022-08-20T21:15:38.483Z,99514.63
2022-08-20T21:18:09.076Z,99518.16
2022-08-20T21:20:36.809Z,99521.72
2022-08-20T21:23:04.949Z,99531.53
2022-08-20T21:25:34.098Z,99538.59
2022-08-20T21:28:02.046Z,99535.94
2022-08-20T21:30:31.358Z,99535.97
2022-08-20T21:32:58.954Z,99540.44
2022-08-20T21:35:26.811Z,99538.63
2022-08-20T21:37:54.299Z,99540.47
2022-08-20T21:40:22.065Z,99542.41
2022-08-20T21:42:50.013Z,99546.00
2022-08-20T21:45:19.521Z,99537.13
2022-08-20T21:47:49.046Z,99545.94
2022-08-20T21:50:19.304Z,99550.38
2022-08-20T21:52:55.101Z,99552.97
2022-08-20T21:55:28.691Z,99552.03
2022-08-20T21:57:57.585Z,99558.25
2022-08-20T22:00:56.708Z,99556.38
2022-08-20T22:03:38.681Z,99563.56
2022-08-20T22:06:09.591Z,99563.59
2022-08-20T22:08:37.509Z,99554.78
2022-08-20T22:11:07.644Z,99556.59
2022-08-20T22:13:35.840Z,99552.19
2022-08-20T22:16:09.671Z,99553.13
2022-08-20T22:18:37.839Z,99551.44
2022-08-20T22:21:11.639Z,99553.28
2022-08-20T22:23:40.150Z,99543.50
2022-08-20T22:26:08.505Z,99550.63
2022-08-20T22:28:36.977Z,99547.03
2022-08-20T22:31:05.473Z,99549.72
2022-08-20T22:33:34.194Z,99555.94
2022-08-20T22:36:04.670Z,99556.00
2022-08-20T22:38:32.145Z,99561.41
2022-08-20T22:40:59.566Z,99558.81
2022-08-20T22:43:26.869Z,99558.84
2022-08-20T22:46:00.041Z,99565.00
2022-08-20T22:48:28.253Z,99555.31
2022-08-20T22:50:58.076Z,99561.59
2022-08-20T22:53:27.097Z,99551.88
2022-08-20T22:55:54.953Z,99550.16
2022-08-20T22:58:30.923Z,99545.81
2022-08-20T23:01:02.167Z,99550.31
2022-08-20T23:03:40.199Z,99541.47
2022-08-20T23:06:09.568Z,99549.41
2022-08-20T23:08:38.094Z,99547.69
2022-08-20T23:11:06.163Z,99551.34
2022-08-20T23:13:34.531Z,99548.78
2022-08-20T23:16:02.060Z,99546.16
2022-08-20T23:18:29.386Z,99544.38
2022-08-20T23:20:59.115Z,99547.94
2022-08-20T23:23:27.613Z,99548.81
2022-08-20T23:25:55.709Z,99547.06
2022-08-20T23:28:25.688Z,99542.66
2022-08-20T23:30:53.374Z,99542.69
2022-08-20T23:33:21.072Z,99548.00
2022-08-20T23:35:48.876Z,99546.25
2022-08-20T23:38:16.461Z,99549.75
2022-08-20T23:40:44.023Z,99554.19
2022-08-20T23:43:11.262Z,99555.91
2022-08-20T23:45:40.848Z,99557.72
2022-08-20T23:48:08.464Z,99548.91
2022-08-20T23:50:37.625Z,99559.56
2022-08-20T23:53:05.356Z,99549.78
2022-08-20T23:55:32.856Z,99548.03
2022-08-20T23:58:00.296Z,99552.50
